Home > Products > Valid Products > TAF

000
FTUS46 KSGX 232000 AAA
TAFSAN
TAF AMD
KSAN 232043Z 2321/2424 25010KT P6SM SCT250
     FM240300 VRB04KT P6SM FEW250
     FM240800 VRB04KT P6SM SCT018
      TEMPO 2412/2416 BKN015
     FM241800 23008KT P6SM FEW020=



000
FTUS46 KSGX 231700 CCA
TAFPSP
TAF COR
KPSP 231724Z 2318/2418 31012KT P6SM SCT250
     FM240100 32008KT P6SM FEW250
     FM240600 VRB04KT P6SM FEW250=



000
FTUS46 KSGX 231700
TAFCRQ
TAF
KCRQ 231722Z 2318/2418 VRB04KT P6SM FEW025
     FM231900 26009KT P6SM SCT250
     FM240200 VRB04KT P6SM SCT250
     FM240900 VRB03KT P6SM SCT015
      TEMPO 2412/2416 BKN012
     FM241700 21006KT P6SM FEW018=



000
FTUS46 KSGX 231700
TAFTRM
TAF
KTRM 231722Z 2318/2418 33011KT P6SM SCT250
     FM232000 VRB06KT P6SM SCT250=



000
FTUS46 KSGX 231700
TAFONT
TAF
KONT 231722Z 2318/2424 VRB04KT P6SM SCT250
     FM232100 25011KT P6SM SCT250
     FM240400 VRB04KT P6SM FEW250
     FM242100 24012KT P6SM SCT250=



000
FTUS46 KSGX 231700
TAFSAN
TAF
KSAN 231722Z 2318/2424 VRB05KT P6SM BKN250
     FM231900 28009KT P6SM SCT250
     FM240300 VRB04KT P6SM FEW250
     FM240800 VRB04KT P6SM SCT018
      TEMPO 2412/2416 BKN015
     FM241800 23008KT P6SM FEW020=



000
FTUS46 KSGX 231700
TAFSNA
TAF
KSNA 231722Z 2318/2418 VRB04KT P6SM SCT025 SCT250
     FM232000 24009KT P6SM SCT250
     FM240300 VRB04KT P6SM SCT200
     FM240800 VRB03KT P6SM SCT018
      TEMPO 2411/2415 BKN014
     FM241600 20006KT P6SM FEW020=



000
FTUS46 KSGX 231700
TAFPSP
TAF
KPSP 231722Z 2318/2418 31012G22KT P6SM SCT250
     FM240100 32008KT P6SM FEW250
     FM240600 VRB04KT P6SM FEW250=



000
FTUS46 KSGX 231400 AAA
TAFSAN
TAF AMD
KSAN 231425Z 2314/2418 VRB04KT P6SM BKN023
     FM231600 VRB05KT P6SM FEW025 SCT250
     FM231900 28010KT P6SM SCT250
     FM240200 VRB04KT P6SM FEW250
     FM240800 VRB04KT P6SM SCT018
      TEMPO 2411/2415 BKN015
     FM241630 21006KT P6SM FEW020=



000
FTUS46 KSGX 231300 AAA
TAFONT
TAF AMD
KONT 231310Z 2313/2418 VRB04KT P6SM SCT030 SCT250
     FM232000 25012KT P6SM SCT250
     FM240400 VRB04KT P6SM SCT250=



000
FTUS46 KSGX 231100
TAFONT
TAF
KONT 231135Z 2312/2418 VRB04KT P6SM SCT030 SCT250
      TEMPO 2312/2315 BKN030
     FM232000 25012KT P6SM SCT250
     FM240400 VRB04KT P6SM SCT250=



000
FTUS46 KSGX 231100
TAFTRM
TAF
KTRM 231135Z 2312/2412 33011KT P6SM SCT250
     FM232000 VRB05KT P6SM SCT250
     FM240300 33007KT P6SM FEW250=



000
FTUS46 KSGX 231100
TAFSAN
TAF
KSAN 231135Z 2312/2418 17004KT P6SM BKN023
     FM232000 29010KT P6SM FEW025 SCT250
     FM240200 VRB04KT P6SM FEW250
     FM240800 VRB04KT P6SM BKN015
     FM241630 21006KT P6SM SCT018=



000
FTUS46 KSGX 231100
TAFPSP
TAF
KPSP 231135Z 2312/2412 32006KT P6SM SCT250
     FM240100 32011KT P6SM FEW250
     FM240600 VRB04KT P6SM FEW250=



000
FTUS46 KSGX 231100
TAFSNA
TAF
KSNA 231135Z 2312/2412 VRB04KT P6SM SCT025
     FM231900 23009KT P6SM SCT250
     FM240200 VRB04KT P6SM SCT200=



000
FTUS46 KSGX 231100
TAFCRQ
TAF
KCRQ 231135Z 2312/2412 VRB04KT P6SM SCT025
      TEMPO 2312/2315 BKN020
     FM231900 26008KT P6SM SCT250
     FM240100 VRB04KT P6SM SCT250
     FM240900 VRB03KT P6SM BKN012=



000
FTUS46 KSGX 230900 AAB
TAFSAN
TAF AMD
KSAN 230959Z 2310/2412 17004KT P6SM SCT025
      TEMPO 2310/2314 BKN020
     FM232000 29010KT P6SM SKC
     FM240200 VRB04KT P6SM SKC
     FM240800 VRB04KT P6SM BKN015=



000
FTUS46 KSGX 230900 AAA
TAFTRM
TAF AMD
KTRM 230925Z 2309/2406 32015G25KT P6SM SKC
     FM231200 33010KT P6SM SKC
     FM232200 VRB05KT P6SM SKC=



000
FTUS46 KSGX 230900 AAA
TAFSAN
TAF AMD
KSAN 230906Z 2309/2412 VRB04KT P6SM SCT025
     FM232000 29011KT P6SM SKC
     FM240200 VRB04KT P6SM SKC
     FM240800 VRB04KT P6SM BKN015=



000
FTUS46 KSGX 230700 AAA
TAFPSP
TAF AMD
KPSP 230727Z 2307/2406 VRB06KT P6SM SKC
      TEMPO 2308/2312 32010KT
     FM231200 32006KT P6SM SKC
     FM240000 32010KT P6SM SKC=



000
FTUS46 KSGX 230500
TAFCRQ
TAF
KCRQ 230520Z 2306/2406 VRB04KT P6SM SCT025
     FM231900 26008KT P6SM SKC
     FM240100 VRB04KT P6SM SKC=



000
FTUS46 KSGX 230500
TAFONT
TAF
KONT 230520Z 2306/2412 VRB04KT P6SM SCT020
     FM232000 25012KT P6SM SKC
     FM240400 VRB04KT P6SM SKC=



000
FTUS46 KSGX 230500
TAFSNA
TAF
KSNA 230520Z 2306/2406 VRB04KT P6SM FEW025
     FM231900 23009KT P6SM SKC
     FM240200 VRB04KT P6SM SKC=



000
FTUS46 KSGX 230500
TAFPSP
TAF
KPSP 230520Z 2306/2406 33012G20KT P6SM SKC
     FM231200 32006KT P6SM SKC
     FM240000 32010KT P6SM SKC=



000
FTUS46 KSGX 230500
TAFSAN
TAF
KSAN 230520Z 2306/2412 VRB04KT P6SM SCT025
     FM232000 29011KT P6SM SKC
     FM240200 VRB04KT P6SM SKC
     FM240800 VRB04KT P6SM BKN015=



000
FTUS46 KSGX 230500
TAFTRM
TAF
KTRM 230520Z 2306/2406 33015G25KT P6SM SKC
     FM230900 33011KT P6SM SKC
     FM232200 VRB05KT P6SM SKC=



000
FTUS46 KSGX 230400 AAC
TAFCRQ
TAF AMD
KCRQ 230438Z 2305/2324 VRB04KT P6SM SCT025
     FM231900 26008KT P6SM SKC=



000
FTUS46 KSGX 230200 AAB
TAFSAN
TAF AMD
KSAN 230252Z 2303/2406 29007KT P6SM OVC021
     FM230800 VRB04KT P6SM SCT025
     FM232000 29011KT P6SM FEW200
     FM240200 VRB04KT P6SM SCT015=



000
FTUS46 KSGX 230100 AAB
TAFCRQ
TAF AMD
KCRQ 230153Z 2302/2324 24007KT P6SM BKN018
     FM230700 VRB04KT P6SM SCT020
     FM231900 26008KT P6SM FEW200=



000
FTUS46 KSGX 230000 AAA
TAFSAN
TAF AMD
KSAN 230044Z 2301/2406 29009KT P6SM BKN025
     FM230300 VRB04KT P6SM SCT025
     FM232000 29011KT P6SM FEW200
     FM240200 VRB04KT P6SM SCT015=



000
FTUS46 KSGX 230000 AAA
TAFCRQ
TAF AMD
KCRQ 230044Z 2301/2324 24008KT P6SM BKN018
     FM230200 VRB04KT P6SM SCT020
     FM231900 26008KT P6SM FEW200=



000
FTUS46 KSGX 222300
TAFPSP
TAF
KPSP 222322Z 2300/2324 32020G28KT P6SM FEW200
     FM230300 32012G20KT P6SM FEW200
     FM231200 32006KT P6SM FEW200=



000
FTUS46 KSGX 222300
TAFONT
TAF
KONT 222322Z 2300/2406 25012G18KT P6SM SCT050
     FM230500 VRB04KT P6SM SCT015
     FM232000 25012KT P6SM FEW200
     FM240400 VRB04KT P6SM FEW200=



000
FTUS46 KSGX 222300
TAFCRQ
TAF
KCRQ 222322Z 2300/2324 24008KT P6SM FEW020
     FM230100 VRB04KT P6SM SCT020
     FM231900 26008KT P6SM FEW200=



000
FTUS46 KSGX 222300
TAFSNA
TAF
KSNA 222322Z 2300/2324 23010KT P6SM FEW025
     FM230300 VRB04KT P6SM SCT025
     FM231900 23009KT P6SM FEW200=



000
FTUS46 KSGX 222300
TAFSAN
TAF
KSAN 222322Z 2300/2406 28010KT P6SM SCT025
     FM230200 VRB04KT P6SM SCT025
     FM232000 29011KT P6SM FEW200
     FM240200 VRB04KT P6SM SCT015=



000
FTUS46 KSGX 222300
TAFTRM
TAF
KTRM 222322Z 2300/2324 28015G25KT P6SM FEW200
     FM230200 33015G25KT P6SM FEW200
     FM230900 33010KT P6SM FEW200=



000
FTUS46 KSGX 222100 AAB
TAFSAN
TAF AMD
KSAN 222159Z 2222/2324 27012G20KT P6SM BKN025
     FM222300 29011KT P6SM SCT025
     FM230200 VRB04KT P6SM SCT025
     FM232000 29011KT P6SM FEW200=



000
FTUS46 KSGX 222000 AAA
TAFSAN
TAF AMD
KSAN 222027Z 2220/2324 21011KT P6SM SCT025
     FM230200 VRB04KT P6SM SCT025
     FM232000 29011KT P6SM FEW200=



000
FTUS46 KSGX 221700
TAFSNA
TAF
KSNA 221720Z 2218/2318 19005KT P6SM BKN027
     FM221900 22011KT P6SM SCT025
     FM230300 VRB04KT P6SM SCT025=



000
FTUS46 KSGX 221700
TAFSAN
TAF
KSAN 221720Z 2218/2324 22007KT P6SM BKN022
     FM222000 27011KT P6SM SCT025
     FM230200 VRB04KT P6SM SCT025
     FM232000 29011KT P6SM FEW200=



000
FTUS46 KSGX 221700
TAFTRM
TAF
KTRM 221720Z 2218/2318 32009KT P6SM BKN190
     FM222100 33012G20KT P6SM SCT200
     FM222300 33018G26KT P6SM FEW200
     FM230700 33011KT P6SM FEW200=



000
FTUS46 KSGX 221700
TAFPSP
TAF
KPSP 221720Z 2218/2318 32012KT P6SM BKN190
     FM222100 32021G30KT P6SM SCT200
     FM230300 32014G22KT P6SM FEW200
     FM230800 31012KT P6SM FEW200
     FM231200 32006KT P6SM FEW200=



000
FTUS46 KSGX 221700
TAFCRQ
TAF
KCRQ 221720Z 2218/2318 22006KT P6SM BKN020
     FM222000 25010KT P6SM SCT022
     FM230100 VRB05KT P6SM SCT022=



000
FTUS46 KSGX 221700
TAFONT
TAF
KONT 221720Z 2218/2324 25007KT P6SM BKN020
     FM222000 25014KT P6SM SCT200
     FM230500 VRB04KT P6SM SCT015
     FM232000 25012KT P6SM FEW200=



000
FTUS46 KSGX 221400 AAA
TAFSAN
TAF AMD
KSAN 221449Z 2215/2318 18005KT P6SM OVC015
     FM221700 22007KT P6SM BKN022
     FM222000 27011KT P6SM SCT025
      TEMPO 2222/2302 BKN025
     FM230200 VRB05KT P6SM BKN025
     FM231400 VRB04KT P6SM SCT025=



000
FTUS46 KSGX 221300 AAA
TAFONT
TAF AMD
KONT 221337Z 2214/2318 VRB04KT 6SM HZ BKN012
     FM221800 23007KT P6SM SCT015
      TEMPO 2218/2219 6SM HZ
     FM222000 25014KT P6SM SCT200
     FM230500 VRB04KT P6SM SCT020
      TEMPO 2309/2313 BKN018=



000
FTUS46 KSGX 221100
TAFONT
TAF
KONT 221132Z 2212/2318 VRB03KT 5SM BR OVC009
     FM221500 VRB04KT 6SM HZ BKN012
     FM221700 23007KT P6SM SCT015
     FM222000 25014KT P6SM SCT200
     FM230400 VRB04KT P6SM SCT020
      TEMPO 2309/2313 BKN018=



000
FTUS46 KSGX 221100
TAFTRM
TAF
KTRM 221132Z 2212/2312 VRB05KT P6SM SCT200
     FM222000 33014G22KT P6SM SCT200
     FM222300 32020G30KT P6SM SKC
     FM230600 33014G22KT P6SM SKC
     FM231000 32009KT P6SM SKC=



000
FTUS46 KSGX 221100
TAFSAN
TAF
KSAN 221132Z 2212/2318 VRB04KT P6SM OVC015
     FM221700 22007KT P6SM BKN022
     FM222000 27011KT P6SM SCT025
      TEMPO 2222/2302 BKN025
     FM230200 VRB05KT P6SM BKN025
     FM231400 VRB04KT P6SM SCT025=



000
FTUS46 KSGX 221100
TAFPSP
TAF
KPSP 221132Z 2212/2312 VRB05KT P6SM SCT200
     FM221800 33014G22KT P6SM SCT200
     FM222200 32024G32KT P6SM SKC
     FM230300 32014G22KT P6SM SKC
     FM230800 31009KT P6SM SKC=



000
FTUS46 KSGX 221100
TAFCRQ
TAF
KCRQ 221132Z 2212/2312 VRB04KT P6SM OVC012
     FM222000 25010KT P6SM SCT020
      TEMPO 2222/2302 BKN018
     FM230200 VRB05KT P6SM BKN020=



000
FTUS46 KSGX 221100
TAFSNA
TAF
KSNA 221132Z 2212/2312 VRB05KT P6SM OVC018
     FM221500 VRB04KT P6SM OVC022
     FM221900 22011KT P6SM SCT025
     FM230300 VRB04KT P6SM SCT025
      TEMPO 2305/2309 BKN020=



000
FTUS46 KSGX 220900 AAA
TAFSAN
TAF AMD
KSAN 220909Z 2209/2312 VRB04KT P6SM OVC009
     FM221200 VRB04KT P6SM OVC012
     FM221800 22007KT P6SM BKN022
     FM222100 27010KT P6SM SCT025
     FM230100 VRB04KT P6SM BKN025=



000
FTUS46 KSGX 220800 AAA
TAFONT
TAF AMD
KONT 220846Z 2209/2312 25005KT P6SM OVC008
     FM221200 VRB04KT 5SM BR BKN009
     FM221700 VRB04KT 6SM HZ SCT015
     FM222000 25012KT P6SM SCT200
     FM230400 VRB04KT P6SM SCT200=



000
FTUS46 KSGX 220500
TAFSNA
TAF
KSNA 220520Z 2206/2306 VRB04KT P6SM OVC012
     FM221600 VRB04KT P6SM OVC022
     FM221900 21010KT P6SM SCT025
     FM230200 VRB04KT P6SM SCT025=



000
FTUS46 KSGX 220500
TAFONT
TAF
KONT 220520Z 2206/2312 25012KT P6SM BKN250
     FM221000 VRB04KT 6SM BR BKN012
     FM221800 VRB04KT 6SM HZ SCT020
     FM222000 25012KT P6SM SCT200
     FM230400 VRB04KT P6SM SCT200=



000
FTUS46 KSGX 220500
TAFTRM
TAF
KTRM 220520Z 2206/2306 32008KT P6SM SCT250
     FM221100 VRB05KT P6SM SCT250
     FM221900 28015G25KT P6SM SCT200
     FM230100 33015G25KT P6SM SCT200=



000
FTUS46 KSGX 220500
TAFCRQ
TAF
KCRQ 220520Z 2206/2306 VRB04KT P6SM OVC012
     FM221600 VRB04KT P6SM BKN020
     FM222000 25008KT P6SM BKN025
      TEMPO 2221/2224 SCT025
     FM230100 VRB04KT P6SM BKN020=



000
FTUS46 KSGX 220500
TAFPSP
TAF
KPSP 220520Z 2206/2306 33008KT P6SM SCT250
     FM220700 VRB05KT P6SM SCT250
     FM221800 33015G25KT P6SM SCT200=



000
FTUS46 KSGX 220500
TAFSAN
TAF
KSAN 220520Z 2206/2312 VRB04KT P6SM OVC012
     FM221600 22007KT P6SM BKN022
     FM222100 27010KT P6SM SCT025
     FM230100 VRB04KT P6SM BKN025=



000
FTUS46 KSGX 220300 AAA
TAFCRQ
TAF AMD
KCRQ 220313Z 2203/2224 VRB04KT P6SM OVC012
     FM221600 VRB04KT P6SM BKN020
     FM222000 25008KT P6SM BKN025
      TEMPO 2221/2224 SCT025=



000
FTUS46 KSGX 220300 AAA
TAFSAN
TAF AMD
KSAN 220300Z 2203/2306 VRB04KT P6SM OVC012
     FM221600 22007KT P6SM BKN022
     FM222100 27010KT P6SM SCT025
     FM230100 VRB04KT P6SM BKN025=



000
FTUS46 KSGX 220200 AAA
TAFSNA
TAF AMD
KSNA 220225Z 2202/2224 21007KT P6SM FEW012
     FM220500 VRB04KT P6SM OVC012
     FM221600 VRB04KT P6SM OVC022
     FM221900 21010KT P6SM SCT025=



000
FTUS46 KSGX 212300
TAFCRQ
TAF
KCRQ 212325Z 2200/2224 23006KT P6SM SCT010
     FM220200 VRB04KT 6SM BR OVC009
     FM220600 VRB04KT P6SM OVC012
     FM221600 VRB04KT P6SM BKN020
     FM222000 25008KT P6SM BKN025
      TEMPO 2221/2224 SCT025=



000
FTUS46 KSGX 212300
TAFTRM
TAF
KTRM 212325Z 2200/2224 15009KT P6SM SKC
     FM220200 VRB05KT P6SM SKC
     FM220500 32008KT P6SM SKC
     FM221100 VRB05KT P6SM SCT200
     FM221900 31015G25KT P6SM SCT200=



000
FTUS46 KSGX 212300
TAFONT
TAF
KONT 212325Z 2200/2306 25012KT P6SM SCT250
     FM220400 VRB04KT P6SM FEW010
     FM221100 VRB04KT 6SM BR BKN012
     FM221800 VRB04KT 6SM HZ SCT020
     FM222000 25012KT P6SM SCT200
     FM230400 VRB04KT P6SM FEW020=



000
FTUS46 KSGX 212300
TAFSNA
TAF
KSNA 212325Z 2200/2224 22008KT P6SM SCT250
     FM220200 VRB04KT P6SM SCT012
     FM220400 VRB04KT P6SM OVC012
     FM221600 VRB04KT P6SM OVC022
     FM221900 21010KT P6SM SCT025=



000
FTUS46 KSGX 212300
TAFSAN
TAF
KSAN 212325Z 2200/2306 27005KT P6SM SCT012
     FM220100 VRB04KT P6SM OVC012
     FM221600 22007KT P6SM BKN022
     FM222100 27010KT P6SM SCT025
     FM230100 VRB04KT P6SM BKN025=



000
FTUS46 KSGX 212300
TAFPSP
TAF
KPSP 212325Z 2200/2224 12008KT P6SM SKC
     FM220300 33008KT P6SM SKC
     FM220700 VRB05KT P6SM SCT200
     FM221800 33015G25KT P6SM SCT200=



000
FTUS46 KSGX 212200 CCA
TAFCRQ
TAF COR
KCRQ 212205Z 2121/2218 25010KT P6SM SCT008
      TEMPO 2122/2124 BKN010
     FM220000 23006KT P6SM SCT009
     FM220200 VRB04KT 5SM BR BKN007
     FM220600 VRB04KT 5SM BR OVC009
     FM221200 VRB04KT 6SM BR OVC012
     FM221600 VRB04KT P6SM BKN020=



000
FTUS46 KSGX 212200 AAB
TAFCRQ
TAF AMD
KCRQ 212204Z 2122/2218 25010KT P6SM SCT008
      TEMPO 2122/2124 6SM BR BKN008
     FM220000 23006KT P6SM SCT009
     FM220200 VRB04KT 5SM BR BKN007
     FM220600 VRB04KT 5SM BR OVC009
     FM221200 VRB04KT 6SM BR OVC012
     FM221600 VRB04KT P6SM BKN020=



000
FTUS46 KSGX 212100 AAB
TAFSAN
TAF AMD
KSAN 212122Z 2121/2224 29009KT P6SM SCT012
      TEMPO 2121/2124 BKN012
     FM220200 25005KT P6SM BKN012
     FM220800 VRB04KT P6SM OVC015
     FM221600 21008KT P6SM BKN022
     FM222000 25009KT P6SM SCT025=



000
FTUS46 KSGX 212000 AAA
TAFCRQ
TAF AMD
KCRQ 212041Z 2121/2218 25010KT P6SM SCT008
      TEMPO 2121/2122 6SM BR BKN008
     FM220000 23006KT P6SM SCT009
     FM220100 VRB04KT 5SM BR BKN007
     FM220600 VRB03KT 5SM BR OVC009
     FM221200 VRB04KT 6SM BR OVC012
     FM221600 VRB04KT P6SM BKN020=



000
FTUS46 KSGX 212000 AAA
TAFSAN
TAF AMD
KSAN 212030Z 2121/2224 29009KT P6SM FEW010
     FM220200 25005KT P6SM BKN010
     FM220800 VRB04KT P6SM OVC015
     FM221600 21008KT P6SM BKN022
     FM222000 25009KT P6SM SCT025=



000
FTUS46 KSGX 211700
TAFCRQ
TAF
KCRQ 211720Z 2118/2218 22005KT P6SM SCT010
     FM212000 24008KT P6SM FEW010
     FM220000 23006KT P6SM SCT009
     FM220100 VRB04KT 5SM BR BKN007
     FM220600 VRB03KT 5SM BR OVC009
     FM221200 VRB04KT 6SM BR OVC012
     FM221600 VRB04KT P6SM BKN020=



000
FTUS46 KSGX 211700
TAFPSP
TAF
KPSP 211720Z 2118/2218 VRB04KT P6SM SKC
     FM212100 11008KT P6SM SKC
     FM220200 33007KT P6SM SKC
     FM220700 VRB04KT P6SM SCT200=



000
FTUS46 KSGX 211700
TAFSAN
TAF
KSAN 211720Z 2118/2224 31005KT P6SM SCT010
     FM211900 25009KT P6SM FEW010
     FM220200 22005KT P6SM BKN010
     FM220800 VRB04KT P6SM OVC015
     FM221600 21008KT P6SM BKN022
     FM222000 25009KT P6SM SCT025=



000
FTUS46 KSGX 211700
TAFSNA
TAF
KSNA 211720Z 2118/2218 VRB05KT P6SM SCT012
      TEMPO 2118/2119 5SM HZ
     FM212000 22009KT P6SM SKC
     FM220200 20005KT P6SM SCT010
     FM220400 VRB04KT P6SM OVC010
     FM221200 VRB04KT P6SM OVC015
     FM221600 VRB04KT P6SM OVC022=



000
FTUS46 KSGX 211700
TAFTRM
TAF
KTRM 211720Z 2118/2218 VRB05KT P6SM SKC
     FM212000 15009KT P6SM SKC
     FM220200 32007KT P6SM SCT200=



000
FTUS46 KSGX 211700
TAFONT
TAF
KONT 211720Z 2118/2224 VRB05KT P6SM SKC
      TEMPO 2118/2119 6SM HZ
     FM212000 25012KT P6SM SKC
     FM220400 25005KT P6SM FEW010
     FM221200 VRB03KT 5SM BR BKN010
     FM221600 VRB03KT 6SM BR BKN015
     FM221800 VRB03KT 6SM HZ SCT018 SCT200
     FM222000 25012KT P6SM FEW018 SCT200=



000
FTUS46 KSGX 211600 AAB
TAFSAN
TAF AMD
KSAN 211619Z 2116/2218 VRB04KT 6SM BR BKN010
     FM211700 20005KT P6SM SCT010
     FM211900 23009KT P6SM SKC
     FM220200 21005KT P6SM BKN010
     FM220800 VRB04KT P6SM OVC015
     FM221700 21008KT P6SM BKN022=



000
FTUS46 KSGX 211500 AAA
TAFSNA
TAF AMD
KSNA 211516Z 2115/2212 VRB03KT 5SM BR OVC010
     FM211700 VRB05KT P6SM SCT012
      TEMPO 2117/2118 6SM HZ
     FM211900 22009KT P6SM SKC
     FM220200 20005KT P6SM SCT010
     FM220500 VRB04KT P6SM OVC012=



000
FTUS46 KSGX 211500 AAA
TAFCRQ
TAF AMD
KCRQ 211515Z 2115/2212 VRB04KT 4SM BR OVC004
     FM211700 VRB04KT 5SM BR BKN006
     FM211800 22005KT 6SM HZ SCT008
     FM211900 24008KT P6SM SKC
     FM220200 VRB04KT P6SM BKN006
     FM220700 VRB03KT P6SM OVC009=



000
FTUS46 KSGX 211400 AAA
TAFSAN
TAF AMD
KSAN 211410Z 2114/2218 VRB04KT 4SM BR FEW005 OVC007
     FM211700 VRB05KT 6SM BR BKN009
     FM211800 20005KT P6SM SCT010
     FM211900 23009KT P6SM SKC
     FM220200 21005KT P6SM BKN010
     FM220800 VRB04KT P6SM OVC015
     FM221700 21008KT P6SM BKN022=



000
FTUS46 KSGX 211100
TAFONT
TAF
KONT 211120Z 2112/2218 VRB05KT P6SM SKC
     FM212000 25012KT P6SM SKC
     FM220400 25005KT P6SM SCT200
     FM221200 VRB03KT 5SM BR BKN008
     FM221600 VRB03KT 6SM HZ SCT010 SCT200=



000
FTUS46 KSGX 211100
TAFPSP
TAF
KPSP 211120Z 2112/2212 VRB04KT P6SM SKC
     FM211900 11008KT P6SM SKC
     FM220100 33010KT P6SM SKC
     FM220600 VRB04KT P6SM SCT200=



000
FTUS46 KSGX 211100
TAFTRM
TAF
KTRM 211120Z 2112/2212 VRB04KT P6SM SKC
     FM211900 15009KT P6SM SKC
     FM220300 32008KT P6SM SCT200=



000
FTUS46 KSGX 211100
TAFSAN
TAF
KSAN 211120Z 2112/2218 VRB04KT P6SM OVC007
     FM211700 20005KT P6SM SCT010
     FM211900 23009KT P6SM SKC
     FM220200 21005KT P6SM BKN010
     FM220800 VRB04KT P6SM OVC015
     FM221700 21008KT P6SM BKN022=



000
FTUS46 KSGX 211100
TAFCRQ
TAF
KCRQ 211120Z 2112/2212 VRB03KT 4SM BR OVC004
     FM211630 22005KT 6SM HZ SCT008
     FM211900 24008KT P6SM SKC
     FM220200 VRB04KT P6SM BKN006
     FM220700 VRB03KT P6SM OVC009=



000
FTUS46 KSGX 211100
TAFSNA
TAF
KSNA 211120Z 2112/2212 VRB03KT 6SM BR OVC005
     FM211600 21005KT P6SM SCT009
     FM211900 22009KT P6SM SKC
     FM220200 20005KT P6SM SCT010
     FM220500 VRB04KT P6SM OVC012=



000
FTUS46 KSGX 210900 AAA
TAFSNA
TAF AMD
KSNA 210905Z 2109/2206 VRB04KT P6SM SCT005
     FM211030 VRB04KT 6SM BR BKN006
     FM211500 VRB04KT P6SM BKN010
     FM211700 21008KT P6SM SCT012
     FM220300 20006KT P6SM BKN009=



000
FTUS46 KSGX 210900 AAA
TAFCRQ
TAF AMD
KCRQ 210903Z 2109/2206 VRB03KT P6SM OVC006
     FM211400 VRB03KT 5SM BR BKN007
     FM211600 26008KT P6SM SCT010
     FM220300 VRB04KT P6SM BKN007=



000
FTUS46 KSGX 210900 AAA
TAFSAN
TAF AMD
KSAN 210901Z 2109/2212 VRB04KT P6SM OVC009
     FM211700 20005KT P6SM SCT012
     FM211900 23009KT P6SM FEW016
     FM220300 26005KT P6SM BKN010=



000
FTUS46 KSGX 210500
TAFSNA
TAF
KSNA 210520Z 2106/2206 22006KT P6SM SCT010
     FM210800 VRB04KT P6SM BKN010
     FM211200 VRB04KT 6SM BR BKN009
     FM211800 VRB04KT P6SM SCT014
     FM212000 22008KT P6SM SKC
     FM220200 20006KT P6SM BKN014=



000
FTUS46 KSGX 210500
TAFCRQ
TAF
KCRQ 210520Z 2106/2206 26004KT P6SM OVC006
     FM210700 VRB03KT 5SM BR OVC005
      TEMPO 2111/2115 2SM BR OVC005
     FM211500 VRB04KT 5SM BR BKN007
     FM211700 VRB04KT 6SM HZ SCT008
     FM212000 26008KT P6SM SCT012
     FM220200 25005KT P6SM BKN012=



000
FTUS46 KSGX 210500
TAFONT
TAF
KONT 210520Z 2106/2212 24005KT P6SM SKC
      TEMPO 2114/2118 5SM HZ
     FM211900 25012KT P6SM SKC
     FM220400 25005KT P6SM SKC=



000
FTUS46 KSGX 210500
TAFTRM
TAF
KTRM 210520Z 2106/2206 VRB05KT P6SM SKC
     FM211900 13009KT P6SM SKC
     FM220300 33012KT P6SM SKC=



000
FTUS46 KSGX 210500
TAFPSP
TAF
KPSP 210520Z 2106/2206 VRB03KT P6SM SKC
     FM212000 11008KT P6SM SKC
     FM220000 33011KT P6SM SKC=



000
FTUS46 KSGX 210500
TAFSAN
TAF
KSAN 210520Z 2106/2212 30004KT P6SM OVC011
      TEMPO 2111/2115 5SM BR OVC010
     FM211800 VRB04KT P6SM SCT012
     FM212000 25009KT P6SM FEW016
     FM220200 26005KT P6SM BKN016=



000
FTUS46 KSGX 210400 AAC
TAFSAN
TAF AMD
KSAN 210422Z 2104/2206 30005KT P6SM OVC012
      TEMPO 2111/2115 5SM BR OVC010
     FM211800 VRB04KT P6SM SCT012
     FM212000 25009KT P6SM FEW014
     FM220200 26005KT P6SM BKN015=



000
FTUS46 KSGX 210300 AAB
TAFCRQ
TAF AMD
KCRQ 210359Z 2104/2124 26004KT P6SM OVC006
     FM210700 VRB03KT 5SM BR BKN005
      TEMPO 2111/2115 2SM BR OVC005
     FM211500 VRB04KT 5SM BR BKN007
     FM211700 VRB04KT 6SM HZ SCT008
     FM212000 26008KT P6SM SCT012=



000
FTUS46 KSGX 210200 AAB
TAFSAN
TAF AMD
KSAN 210203Z 2102/2206 22004KT P6SM FEW014
     FM210600 VRB04KT P6SM BKN012
      TEMPO 2111/2115 5SM BR OVC007
     FM211800 VRB04KT P6SM SCT011
     FM212000 25009KT P6SM FEW014
     FM220200 26005KT P6SM BKN015=



000
FTUS46 KSGX 210100 AAA
TAFCRQ
TAF AMD
KCRQ 210107Z 2101/2124 26005KT P6SM SKC
     FM210400 VRB04KT P6SM SCT010
     FM210600 VRB03KT 5SM BR BKN007
      TEMPO 2111/2115 2SM BR OVC005
     FM211500 VRB04KT 5SM BR BKN007
     FM211700 VRB04KT 6SM HZ SCT008
     FM212000 26008KT P6SM SCT012=



000
FTUS46 KSGX 210100 AAA
TAFSAN
TAF AMD
KSAN 210104Z 2101/2206 21007KT P6SM FEW014
     FM210400 VRB04KT P6SM BKN012
      TEMPO 2111/2115 5SM BR OVC007
     FM211800 VRB04KT P6SM SCT011
     FM212000 25009KT P6SM FEW014
     FM220200 26005KT P6SM BKN015=



000
FTUS46 KSGX 202300
TAFSNA
TAF
KSNA 202328Z 2100/2124 23010KT P6SM FEW060
     FM210200 VRB04KT P6SM FEW010
     FM210600 VRB04KT 5SM BR OVC008
     FM211600 VRB04KT 5SM BR BKN010
     FM211700 VRB04KT 6SM HZ SCT011
     FM212000 21007KT P6SM SKC=



000
FTUS46 KSGX 202300
TAFTRM
TAF
KTRM 202328Z 2100/2124 14008KT P6SM SKC
     FM210300 32006KT P6SM SKC
     FM212000 13009KT P6SM SKC=



000
FTUS46 KSGX 202300
TAFCRQ
TAF
KCRQ 202328Z 2100/2124 23006KT P6SM SKC
     FM210300 VRB04KT 4SM BR OVC007
      TEMPO 2111/2115 2SM BR OVC005
     FM211500 VRB04KT 5SM BR BKN007
     FM211700 VRB04KT 6SM HZ SCT008
     FM212000 26008KT P6SM SCT012=



000
FTUS46 KSGX 202300
TAFSAN
TAF
KSAN 202328Z 2100/2206 29007KT P6SM FEW014 SCT080
     FM210100 26004KT P6SM SCT010
     FM210200 VRB04KT P6SM OVC009
      TEMPO 2111/2115 5SM BR OVC007
     FM211800 VRB04KT P6SM SCT011
     FM212000 25009KT P6SM FEW014
     FM220200 26005KT P6SM BKN015=



000
FTUS46 KSGX 202300
TAFPSP
TAF
KPSP 202328Z 2100/2124 10010KT P6SM FEW120
     FM210200 32007KT P6SM SKC
     FM212100 11008KT P6SM SKC=



000
FTUS46 KSGX 202300
TAFONT
TAF
KONT 202328Z 2100/2206 24011KT P6SM SKC
     FM210400 VRB04KT P6SM SKC
     FM211900 25012KT P6SM SKC
     FM220400 25005KT P6SM SKC=



    US Dept of Commerce
    National Oceanic and Atmospheric Administration
    National Weather Service
    1325 East West Highway
    Silver Spring, MD 20910
    Page Author: NWS Internet Services Team
Disclaimer
Information Quality
Credits
Glossary
Privacy Policy
Freedom of Information Act (FOIA)
About Us
Career Opportunities